createdAt,value
2023-02-19T00:00:07.373Z,9.07
2023-02-19T00:02:42.127Z,9.23
2023-02-19T00:05:11.372Z,8.50
2023-02-19T00:07:40.284Z,10.10
2023-02-19T00:10:09.341Z,7.90
2023-02-19T00:12:37.930Z,7.72
2023-02-19T00:15:06.961Z,9.23
2023-02-19T00:17:35.659Z,7.10
2023-02-19T00:20:04.420Z,7.95
2023-02-19T00:22:33.164Z,7.25
2023-02-19T00:25:01.742Z,7.65
2023-02-19T00:27:30.421Z,8.82
2023-02-19T00:29:59.471Z,11.68
2023-02-19T00:32:28.043Z,7.53
2023-02-19T00:34:56.911Z,9.38
2023-02-19T00:37:26.968Z,6.78
2023-02-19T00:39:55.816Z,9.07
2023-02-19T00:42:24.584Z,8.95
2023-02-19T00:44:53.107Z,7.70
2023-02-19T00:47:21.930Z,8.45
2023-02-19T00:49:50.585Z,7.60
2023-02-19T00:52:19.330Z,7.97
2023-02-19T00:54:48.247Z,7.47
2023-02-19T00:57:16.984Z,7.38
2023-02-19T00:59:45.686Z,8.50
2023-02-19T01:02:14.544Z,7.35
2023-02-19T01:04:43.324Z,6.78
2023-02-19T01:07:12.580Z,8.90
2023-02-19T01:09:41.241Z,6.40
2023-02-19T01:12:09.981Z,8.60
2023-02-19T01:14:38.741Z,7.30
2023-02-19T01:17:07.545Z,6.45
2023-02-19T01:19:36.303Z,7.93
2023-02-19T01:22:05.125Z,8.75
2023-02-19T01:24:33.779Z,7.80
2023-02-19T01:27:02.515Z,8.40
2023-02-19T01:29:31.517Z,7.50
2023-02-19T01:32:02.930Z,9.27
2023-02-19T01:34:34.182Z,9.05
2023-02-19T01:37:02.886Z,11.00
2023-02-19T01:39:31.764Z,10.70
2023-02-19T01:42:00.900Z,9.52
2023-02-19T01:44:29.680Z,11.82
2023-02-19T01:46:59.423Z,9.48
2023-02-19T01:49:49.503Z,10.50
2023-02-19T01:52:35.221Z,10.00
2023-02-19T01:55:07.221Z,10.13
2023-02-19T01:57:40.927Z,9.23
2023-02-19T02:00:13.786Z,8.18
2023-02-19T02:02:45.901Z,9.20
2023-02-19T02:05:46.309Z,8.88
2023-02-19T02:08:36.040Z,7.40
2023-02-19T02:11:05.362Z,8.73
2023-02-19T02:13:36.135Z,8.50
2023-02-19T02:16:16.775Z,7.30
2023-02-19T02:19:28.564Z,7.65
2023-02-19T02:22:09.016Z,7.43
2023-02-19T02:25:01.531Z,7.10
2023-02-19T02:27:54.406Z,7.57
2023-02-19T02:30:38.906Z,6.47
2023-02-19T02:33:13.610Z,7.32
2023-02-19T02:35:54.200Z,7.22
2023-02-19T02:38:29.861Z,8.45
2023-02-19T02:40:59.224Z,7.38
2023-02-19T02:43:28.277Z,7.15
2023-02-19T02:45:57.123Z,7.05
2023-02-19T02:48:43.453Z,8.25
2023-02-19T02:51:27.713Z,8.57
2023-02-19T02:54:31.924Z,7.18
2023-02-19T02:57:03.943Z,7.13
2023-02-19T02:59:40.215Z,6.30
2023-02-19T03:02:15.811Z,7.53
2023-02-19T03:05:26.868Z,7.07
2023-02-19T03:08:13.085Z,8.07
2023-02-19T03:10:57.764Z,6.90
2023-02-19T03:13:52.966Z,7.60
2023-02-19T03:16:45.729Z,7.68
2023-02-19T03:19:20.654Z,6.95
2023-02-19T03:21:59.853Z,8.88
2023-02-19T03:24:52.081Z,7.93
2023-02-19T03:27:22.986Z,7.57
2023-02-19T03:30:02.884Z,7.40
2023-02-19T03:32:38.095Z,6.88
2023-02-19T03:35:12.623Z,7.53
2023-02-19T03:38:02.253Z,6.35
2023-02-19T03:40:42.580Z,7.35
2023-02-19T03:43:20.340Z,7.38
2023-02-19T03:45:59.437Z,8.45
2023-02-19T03:48:39.232Z,8.70
2023-02-19T03:51:40.788Z,7.50
2023-02-19T03:54:26.963Z,7.28
2023-02-19T03:57:03.070Z,7.95
2023-02-19T03:59:44.843Z,8.32
2023-02-19T04:02:30.512Z,8.10
2023-02-19T04:05:18.088Z,8.60
2023-02-19T04:07:54.852Z,8.13
2023-02-19T04:10:32.667Z,8.95
2023-02-19T04:13:07.429Z,7.93
2023-02-19T04:15:37.989Z,8.65
2023-02-19T04:18:15.834Z,7.97
2023-02-19T04:20:47.072Z,8.23
2023-02-19T04:23:20.376Z,8.18
2023-02-19T04:25:55.880Z,8.05
2023-02-19T04:28:24.800Z,8.52
2023-02-19T04:30:53.418Z,8.20
2023-02-19T04:33:22.353Z,7.97
2023-02-19T04:35:51.038Z,8.75
2023-02-19T04:38:19.754Z,8.85
2023-02-19T04:40:48.616Z,8.00
2023-02-19T04:43:17.418Z,7.85
2023-02-19T04:45:46.136Z,7.82
2023-02-19T04:48:15.492Z,7.55
2023-02-19T04:50:44.496Z,7.95
2023-02-19T04:53:13.144Z,8.02
2023-02-19T04:55:42.079Z,7.60
2023-02-19T04:58:10.774Z,7.70
2023-02-19T05:00:39.531Z,6.97
2023-02-19T05:03:08.295Z,7.93
2023-02-19T05:05:37.155Z,7.82
2023-02-19T05:08:06.050Z,7.40
2023-02-19T05:10:35.392Z,8.02
2023-02-19T05:13:04.172Z,8.30
2023-02-19T05:15:32.839Z,8.38
2023-02-19T05:18:01.617Z,8.18
2023-02-19T05:20:30.232Z,9.07
2023-02-19T05:22:58.979Z,8.20
2023-02-19T05:25:27.574Z,8.13
2023-02-19T05:28:16.256Z,7.15
2023-02-19T05:30:54.085Z,7.13
2023-02-19T05:33:25.395Z,8.52
2023-02-19T05:35:56.796Z,7.45
2023-02-19T05:38:25.815Z,7.57
2023-02-19T05:40:54.539Z,8.50
2023-02-19T05:43:23.195Z,7.90
2023-02-19T05:45:54.315Z,8.88
2023-02-19T05:48:23.143Z,8.00
2023-02-19T05:50:51.879Z,8.38
2023-02-19T05:53:22.297Z,8.80
2023-02-19T05:55:51.135Z,8.35
2023-02-19T05:58:20.195Z,7.97
2023-02-19T06:00:49.038Z,7.95
2023-02-19T06:03:17.714Z,8.20
2023-02-19T06:05:46.381Z,7.95
2023-02-19T06:08:16.403Z,8.38
2023-02-19T06:10:45.243Z,7.43
2023-02-19T06:13:14.691Z,8.35
2023-02-19T06:15:44.243Z,9.10
2023-02-19T06:18:13.090Z,7.63
2023-02-19T06:20:44.829Z,6.53
2023-02-19T06:23:13.551Z,7.35
2023-02-19T06:25:42.849Z,8.20
2023-02-19T06:28:12.529Z,8.43
2023-02-19T06:30:41.218Z,8.63
2023-02-19T06:33:09.991Z,7.47
2023-02-19T06:35:38.633Z,8.05
2023-02-19T06:38:07.454Z,8.68
2023-02-19T06:40:36.032Z,8.05
2023-02-19T06:43:05.068Z,8.00
2023-02-19T06:45:33.647Z,8.48
2023-02-19T06:48:02.528Z,8.57
2023-02-19T06:50:31.309Z,7.63
2023-02-19T06:53:00.235Z,8.00
2023-02-19T06:55:28.976Z,9.05
2023-02-19T06:57:58.306Z,8.70
2023-02-19T07:00:27.137Z,8.93
2023-02-19T07:02:57.288Z,8.80
2023-02-19T07:05:26.167Z,9.43
2023-02-19T07:07:54.906Z,8.85
2023-02-19T07:10:23.867Z,7.88
2023-02-19T07:12:52.906Z,9.38
2023-02-19T07:15:24.681Z,9.10
2023-02-19T07:17:53.442Z,9.05
2023-02-19T07:20:22.116Z,8.07
2023-02-19T07:22:51.270Z,8.70
2023-02-19T07:25:22.722Z,7.72
2023-02-19T07:27:51.514Z,8.15
2023-02-19T07:30:20.301Z,7.70
2023-02-19T07:32:49.226Z,7.97
2023-02-19T07:35:18.065Z,8.32
2023-02-19T07:37:46.803Z,8.73
2023-02-19T07:40:15.993Z,8.63
2023-02-19T07:42:44.789Z,8.88
2023-02-19T07:45:13.767Z,9.75
2023-02-19T07:47:42.509Z,9.38
2023-02-19T07:50:13.887Z,9.05
2023-02-19T07:52:42.616Z,8.80
2023-02-19T07:55:11.351Z,9.10
2023-02-19T07:57:40.311Z,9.07
2023-02-19T08:00:09.290Z,9.48
2023-02-19T08:03:02.310Z,9.70
2023-02-19T08:05:33.771Z,9.10
2023-02-19T08:08:02.409Z,8.60
2023-02-19T08:10:49.585Z,9.35
2023-02-19T08:13:23.499Z,8.77
2023-02-19T08:16:21.727Z,9.20
2023-02-19T08:18:50.840Z,9.13
2023-02-19T08:21:19.726Z,8.98
2023-02-19T08:23:50.911Z,10.00
2023-02-19T08:26:20.208Z,9.48
2023-02-19T08:28:49.887Z,9.10
2023-02-19T08:31:18.815Z,9.27
2023-02-19T08:33:47.504Z,9.15
2023-02-19T08:36:16.240Z,9.82
2023-02-19T08:38:44.830Z,8.90
2023-02-19T08:41:16.628Z,10.13
2023-02-19T08:43:45.524Z,9.65
2023-02-19T08:46:14.582Z,8.65
2023-02-19T08:48:43.562Z,9.93
2023-02-19T08:51:13.309Z,9.80
2023-02-19T08:53:42.637Z,9.25
2023-02-19T08:56:14.270Z,6.75
2023-02-19T08:58:43.428Z,9.73
2023-02-19T09:01:14.936Z,10.70
2023-02-19T09:03:44.057Z,9.95
2023-02-19T09:06:18.452Z,9.25
2023-02-19T09:11:16.244Z,8.30
2023-02-19T09:13:45.408Z,10.10
2023-02-19T09:16:14.184Z,10.35
2023-02-19T09:18:42.825Z,8.75
2023-02-19T09:21:11.846Z,10.57
2023-02-19T09:23:40.926Z,9.27
2023-02-19T09:26:12.108Z,9.60
2023-02-19T09:28:42.407Z,10.10
2023-02-19T09:31:17.047Z,10.32
2023-02-19T09:33:49.815Z,9.32
2023-02-19T09:36:19.581Z,9.70
2023-02-19T09:38:51.417Z,8.90
2023-02-19T09:41:28.971Z,9.98
2023-02-19T09:44:03.804Z,8.98
2023-02-19T09:46:43.456Z,8.45
2023-02-19T09:49:21.976Z,9.20
2023-02-19T09:51:57.564Z,9.35
2023-02-19T09:54:29.435Z,9.27
2023-02-19T09:57:01.120Z,8.98
2023-02-19T09:59:42.981Z,9.05
2023-02-19T10:02:17.824Z,9.18
2023-02-19T10:04:48.622Z,9.32
2023-02-19T10:07:24.638Z,8.50
2023-02-19T10:10:22.512Z,8.05
2023-02-19T10:12:54.920Z,8.57
2023-02-19T10:15:27.400Z,8.15
2023-02-19T10:17:56.883Z,9.43
2023-02-19T10:20:28.899Z,8.43
2023-02-19T10:23:12.240Z,8.68
2023-02-19T10:26:03.004Z,8.60
2023-02-19T10:28:35.085Z,9.52
2023-02-19T10:31:12.914Z,8.48
2023-02-19T10:33:53.139Z,8.63
2023-02-19T10:36:43.341Z,8.25
2023-02-19T10:39:24.143Z,8.15
2023-02-19T10:41:56.461Z,8.13
2023-02-19T10:44:32.001Z,8.20
2023-02-19T10:47:04.302Z,8.50
2023-02-19T10:49:34.910Z,7.95
2023-02-19T10:52:28.584Z,8.32
2023-02-19T10:55:21.602Z,9.50
2023-02-19T10:57:51.365Z,7.63
2023-02-19T11:00:29.632Z,8.02
2023-02-19T11:03:23.312Z,8.88
2023-02-19T11:06:02.410Z,7.30
2023-02-19T11:08:34.770Z,7.68
2023-02-19T11:11:03.934Z,9.13
2023-02-19T11:13:38.768Z,7.88
2023-02-19T11:16:07.780Z,8.15
2023-02-19T11:18:37.112Z,8.77
2023-02-19T11:21:08.309Z,9.00
2023-02-19T11:23:44.664Z,9.55
2023-02-19T11:26:26.920Z,9.40
2023-02-19T11:29:01.266Z,9.70
2023-02-19T11:31:36.836Z,9.90
2023-02-19T11:34:26.811Z,10.23
2023-02-19T11:37:10.850Z,9.48
2023-02-19T11:39:42.432Z,9.13
2023-02-19T11:42:40.626Z,10.02
2023-02-19T11:45:18.292Z,9.80
2023-02-19T11:47:59.474Z,11.32
2023-02-19T11:50:50.117Z,11.65
2023-02-19T11:53:34.154Z,11.43
2023-02-19T11:56:20.387Z,11.87
2023-02-19T11:59:22.916Z,11.85
2023-02-19T12:02:08.881Z,12.88
2023-02-19T12:04:55.647Z,11.65
2023-02-19T12:08:14.604Z,11.60
2023-02-19T12:11:16.709Z,10.63
2023-02-19T12:14:25.602Z,11.60
2023-02-19T12:17:12.426Z,9.85
2023-02-19T12:20:00.026Z,10.43
2023-02-19T12:22:29.321Z,11.88
2023-02-19T12:25:28.837Z,11.63
2023-02-19T12:28:27.920Z,11.95
2023-02-19T12:31:15.622Z,10.82
2023-02-19T12:34:05.358Z,11.68
2023-02-19T12:36:53.797Z,12.32
2023-02-19T12:39:44.918Z,12.25
2023-02-19T12:42:24.998Z,10.70
2023-02-19T12:45:06.208Z,11.07
2023-02-19T12:47:41.537Z,10.55
2023-02-19T12:50:22.542Z,11.85
2023-02-19T12:53:01.880Z,10.20
2023-02-19T12:55:37.401Z,10.60
2023-02-19T12:58:12.382Z,10.73
2023-02-19T13:00:51.310Z,10.30
2023-02-19T13:03:38.367Z,9.85
2023-02-19T13:06:09.416Z,10.75
2023-02-19T13:09:06.411Z,9.80
2023-02-19T13:12:04.264Z,12.90
2023-02-19T13:14:43.866Z,10.07
2023-02-19T13:17:42.524Z,11.18
2023-02-19T13:20:30.225Z,11.93
2023-02-19T13:23:41.745Z,10.45
2023-02-19T13:26:19.608Z,11.68
2023-02-19T13:29:20.641Z,12.52
2023-02-19T13:32:18.279Z,11.30
2023-02-19T13:34:56.214Z,10.10
2023-02-19T13:37:26.359Z,11.20
2023-02-19T13:40:05.669Z,10.98
2023-02-19T13:42:37.154Z,13.02
2023-02-19T13:45:07.853Z,9.77
2023-02-19T13:48:17.825Z,11.45
2023-02-19T13:50:46.682Z,10.15
2023-02-19T13:53:54.770Z,11.00
2023-02-19T13:56:32.307Z,11.63
2023-02-19T13:59:26.902Z,10.38
2023-02-19T14:01:55.553Z,10.95
2023-02-19T14:05:04.241Z,11.20
2023-02-19T14:07:36.262Z,10.32
2023-02-19T14:10:12.287Z,10.38
2023-02-19T14:12:41.086Z,12.45
2023-02-19T14:15:50.548Z,10.35
2023-02-19T14:18:45.213Z,11.07
2023-02-19T14:21:29.078Z,11.00
2023-02-19T14:23:59.245Z,10.43
2023-02-19T14:26:28.797Z,10.30
2023-02-19T14:28:58.215Z,10.77
2023-02-19T14:31:37.228Z,13.32
2023-02-19T14:34:16.455Z,10.40
2023-02-19T14:37:01.297Z,10.85
2023-02-19T14:39:39.432Z,10.48
2023-02-19T14:42:23.545Z,10.18
2023-02-19T14:44:58.091Z,10.88
2023-02-19T14:47:31.491Z,9.57
2023-02-19T14:50:06.797Z,10.40
2023-02-19T14:52:50.812Z,10.18
2023-02-19T14:55:26.872Z,11.27
2023-02-19T14:57:57.910Z,9.48
2023-02-19T15:00:38.019Z,11.13
2023-02-19T15:03:07.931Z,10.50
2023-02-19T15:05:38.224Z,10.05
2023-02-19T15:08:33.136Z,9.98
2023-02-19T15:13:32.471Z,9.35
2023-02-19T15:16:01.372Z,9.63
2023-02-19T15:18:30.844Z,9.57
2023-02-19T15:21:03.471Z,8.35
2023-02-19T15:23:36.612Z,9.65
2023-02-19T15:26:06.694Z,10.68
2023-02-19T15:28:35.682Z,10.57
2023-02-19T15:31:08.401Z,12.40
2023-02-19T15:33:38.377Z,9.60
2023-02-19T15:36:10.277Z,8.43
2023-02-19T15:38:39.400Z,10.63
2023-02-19T15:41:15.907Z,9.80
2023-02-19T15:43:54.687Z,9.20
2023-02-19T15:46:27.177Z,9.32
2023-02-19T15:49:07.528Z,10.45
2023-02-19T15:51:42.844Z,10.00
2023-02-19T15:54:31.404Z,10.25
2023-02-19T15:57:05.340Z,11.32
2023-02-19T15:59:42.904Z,10.20
2023-02-19T16:02:16.759Z,10.65
2023-02-19T16:04:46.723Z,8.75
2023-02-19T16:07:35.442Z,10.07
2023-02-19T16:10:20.945Z,12.63
2023-02-19T16:13:00.436Z,12.00
2023-02-19T16:15:31.350Z,10.05
2023-02-19T16:18:07.482Z,10.18
2023-02-19T16:20:38.269Z,12.65
2023-02-19T16:23:16.115Z,10.00
2023-02-19T16:25:49.244Z,11.80
2023-02-19T16:28:25.218Z,10.25
2023-02-19T16:31:14.606Z,9.40
2023-02-19T16:33:49.103Z,10.63
2023-02-19T16:36:22.684Z,12.07
2023-02-19T16:39:00.770Z,10.80
2023-02-19T16:41:29.453Z,12.07
2023-02-19T16:43:58.374Z,10.35
2023-02-19T16:46:27.169Z,11.40
2023-02-19T16:48:55.822Z,11.13
2023-02-19T16:51:28.676Z,13.88
2023-02-19T16:53:57.600Z,10.43
2023-02-19T16:56:26.520Z,12.85
2023-02-19T16:58:55.519Z,10.85
2023-02-19T17:01:24.774Z,10.32
2023-02-19T17:03:58.113Z,11.93
2023-02-19T17:06:30.061Z,12.45
2023-02-19T17:08:58.974Z,14.45
2023-02-19T17:11:27.919Z,12.13
2023-02-19T17:13:56.762Z,10.38
2023-02-19T17:16:32.536Z,11.60
2023-02-19T17:19:01.643Z,11.40
2023-02-19T17:21:34.211Z,8.18
2023-02-19T17:24:04.282Z,12.45
2023-02-19T17:26:34.494Z,10.93
2023-02-19T17:29:06.771Z,11.35
2023-02-19T17:31:35.915Z,12.60
2023-02-19T17:34:05.203Z,11.20
2023-02-19T17:36:33.955Z,12.40
2023-02-19T17:39:05.521Z,11.48
2023-02-19T17:41:34.366Z,12.25
2023-02-19T17:44:03.421Z,9.32
2023-02-19T17:46:32.199Z,12.48
2023-02-19T17:49:02.194Z,11.25
2023-02-19T17:51:31.761Z,11.55
2023-02-19T17:54:00.366Z,11.43
2023-02-19T17:56:29.338Z,9.02
2023-02-19T17:58:59.066Z,11.68
2023-02-19T18:01:27.886Z,12.60
2023-02-19T18:03:56.820Z,11.30
2023-02-19T18:06:25.518Z,12.73
2023-02-19T18:08:54.677Z,13.93
2023-02-19T18:11:24.279Z,11.82
2023-02-19T18:13:52.999Z,12.32
2023-02-19T18:16:24.652Z,10.68
2023-02-19T18:18:53.497Z,11.75
2023-02-19T18:21:24.737Z,9.88
2023-02-19T18:23:53.496Z,9.95
2023-02-19T18:26:22.220Z,11.35
2023-02-19T18:28:51.018Z,11.13
2023-02-19T18:31:20.265Z,10.55
2023-02-19T18:33:49.737Z,11.10
2023-02-19T18:36:18.622Z,10.40
2023-02-19T18:38:47.539Z,14.75
2023-02-19T18:41:20.273Z,11.20
2023-02-19T18:43:49.397Z,12.48
2023-02-19T18:46:21.735Z,10.85
2023-02-19T18:48:50.487Z,10.60
2023-02-19T18:51:19.143Z,12.23
2023-02-19T18:53:47.785Z,10.35
2023-02-19T18:56:17.149Z,11.38
2023-02-19T18:58:45.959Z,11.75
2023-02-19T19:01:15.023Z,11.13
2023-02-19T19:03:43.906Z,11.13
2023-02-19T19:06:12.448Z,11.40
2023-02-19T19:08:43.753Z,11.98
2023-02-19T19:11:12.830Z,12.35
2023-02-19T19:13:42.323Z,10.50
2023-02-19T19:16:11.108Z,10.52
2023-02-19T19:18:39.609Z,10.63
2023-02-19T19:21:10.553Z,10.68
2023-02-19T19:23:39.386Z,11.10
2023-02-19T19:26:08.181Z,10.70
2023-02-19T19:28:45.681Z,11.35
2023-02-19T19:31:16.833Z,11.48
2023-02-19T19:33:47.510Z,12.48
2023-02-19T19:36:20.734Z,10.50
2023-02-19T19:38:50.432Z,10.73
2023-02-19T19:41:21.083Z,11.35
2023-02-19T19:43:49.786Z,11.48
2023-02-19T19:46:21.689Z,10.88
2023-02-19T19:48:53.780Z,12.30
2023-02-19T19:51:22.451Z,11.30
2023-02-19T19:53:51.442Z,10.65
2023-02-19T19:56:20.096Z,9.75
2023-02-19T19:58:49.237Z,9.50
2023-02-19T20:01:21.647Z,13.88
2023-02-19T20:03:52.246Z,9.55
2023-02-19T20:06:32.186Z,10.43
2023-02-19T20:09:01.041Z,8.93
2023-02-19T20:11:29.650Z,9.43
2023-02-19T20:13:59.407Z,9.40
2023-02-19T20:16:29.138Z,8.77
2023-02-19T20:18:57.982Z,10.18
2023-02-19T20:21:27.015Z,9.52
2023-02-19T20:23:55.638Z,10.50
2023-02-19T20:26:26.397Z,10.45
2023-02-19T20:28:56.337Z,9.15
2023-02-19T20:31:26.018Z,9.60
2023-02-19T20:33:54.938Z,10.73
2023-02-19T20:36:23.573Z,11.40
2023-02-19T20:38:52.269Z,11.07
2023-02-19T20:41:21.005Z,10.00
2023-02-19T20:43:50.392Z,8.77
2023-02-19T20:46:22.315Z,9.30
2023-02-19T20:48:51.996Z,11.55
2023-02-19T20:51:20.873Z,10.15
2023-02-19T20:53:49.455Z,12.27
2023-02-19T20:56:18.625Z,10.68
2023-02-19T20:58:47.336Z,10.98
2023-02-19T21:01:16.055Z,10.35
2023-02-19T21:03:47.735Z,10.45
2023-02-19T21:06:18.693Z,10.23
2023-02-19T21:08:47.516Z,8.77
2023-02-19T21:11:16.251Z,9.60
2023-02-19T21:13:44.958Z,9.27
2023-02-19T21:16:13.982Z,10.13
2023-02-19T21:18:43.260Z,10.95
2023-02-19T21:21:12.021Z,9.95
2023-02-19T21:23:40.673Z,9.63
2023-02-19T21:26:09.520Z,9.93
2023-02-19T21:28:39.173Z,10.00
2023-02-19T21:31:07.931Z,8.20
2023-02-19T21:33:36.774Z,9.23
2023-02-19T21:36:06.214Z,10.52
2023-02-19T21:38:34.921Z,9.60
2023-02-19T21:41:03.716Z,9.20
2023-02-19T21:43:32.726Z,9.82
2023-02-19T21:46:01.464Z,9.32
2023-02-19T21:48:30.213Z,9.75
2023-02-19T21:50:58.708Z,9.35
2023-02-19T21:53:27.499Z,9.27
2023-02-19T21:55:59.397Z,9.48
2023-02-19T21:58:28.097Z,9.85
2023-02-19T22:00:58.769Z,9.40
2023-02-19T22:03:27.377Z,8.48
2023-02-19T22:05:56.221Z,10.48
2023-02-19T22:08:24.863Z,9.52
2023-02-19T22:10:53.455Z,7.38
2023-02-19T22:13:22.225Z,8.77
2023-02-19T22:15:50.960Z,11.50
2023-02-19T22:18:19.467Z,8.57
2023-02-19T22:20:48.173Z,8.68
2023-02-19T22:23:16.891Z,9.80
2023-02-19T22:25:45.591Z,9.80
2023-02-19T22:28:14.124Z,9.18
2023-02-19T22:30:43.589Z,8.82
2023-02-19T22:33:12.083Z,7.75
2023-02-19T22:35:40.789Z,9.15
2023-02-19T22:38:09.325Z,8.68
2023-02-19T22:40:38.088Z,8.30
2023-02-19T22:43:06.848Z,7.97
2023-02-19T22:45:35.496Z,8.93
2023-02-19T22:48:04.410Z,8.50
2023-02-19T22:50:33.455Z,7.40
2023-02-19T22:53:02.289Z,8.52
2023-02-19T22:55:31.743Z,8.45
2023-02-19T22:58:00.343Z,8.95
2023-02-19T23:00:28.953Z,9.10
2023-02-19T23:02:57.826Z,9.57
2023-02-19T23:05:26.536Z,9.45
2023-02-19T23:07:55.088Z,8.82
2023-02-19T23:10:24.008Z,8.85
2023-02-19T23:12:52.527Z,9.85
2023-02-19T23:15:21.090Z,8.93
2023-02-19T23:17:49.599Z,9.23
2023-02-19T23:20:18.335Z,8.80
2023-02-19T23:22:46.659Z,8.63
2023-02-19T23:25:15.473Z,8.45
2023-02-19T23:27:44.305Z,8.73
2023-02-19T23:30:13.650Z,8.70
2023-02-19T23:32:42.358Z,8.82
2023-02-19T23:35:11.386Z,7.78
2023-02-19T23:37:40.083Z,8.18
2023-02-19T23:40:09.290Z,8.23
2023-02-19T23:42:38.156Z,8.02
2023-02-19T23:45:07.089Z,7.75
2023-02-19T23:47:35.801Z,8.00
2023-02-19T23:50:04.383Z,7.20
2023-02-19T23:52:33.165Z,7.20
2023-02-19T23:55:01.769Z,7.15
2023-02-19T23:57:30.448Z,7.10
2023-02-19T23:59:59.218Z,7.55
